Alice, North Dakota
Current Conditions -  °F | °C
As of 5:55 PM on Wednesday 28 Jan 2015 (Local Time) from KBAC Reporting Station
Light Rain Light Rain  
Wind Chill: 19°   Ceiling: 800
Heat Index: 32°   Visibility: 5mi
Dew Point: 32°   Wind: 24mph
Humidity: 100%   Direction: 340°NNW
Pressure: 29.88"   Gusts: 30mph
Location:  46.7681°N, 97.6777°W
Report Text: KBAC 282355Z AUTO 34021G26KT 5SM -RA OVC008 00/00 A2988 RMK AO2
Loading
Personal Weather Stations






























Interactive Weather Map New forecast layout! Learn more

10-Day Weather Forecast

Advertisements
Track Severe Weather on mobile